Time;durP1;ratioP1;P1;durP2;ratioP2;P2;SDS_P1;SDS_P2;PMS_P1;PMS_P2;Temp;Humidity;BMP_temperature;BMP_pressure;BME280_temperature;BME280_humidity;BME280_pressure;Samples;Min_cycle;Max_cycle;Signal;HPM_P1;HPM_P2
2023/02/28 00:01:26;;;;;;;0.82;0.82;;;;;;;4.48;46.69;100997.38;4444142;32;34063;-85
2023/02/28 00:04:00;;;;;;;3.62;0.80;;;;;;;4.41;47.13;101000.84;4424710;32;32347;-85
2023/02/28 00:06:27;;;;;;;0.90;0.90;;;;;;;4.52;47.01;100991.28;4399156;32;33124;-85
2023/02/28 00:08:55;;;;;;;4.07;0.70;;;;;;;4.60;46.23;100992.13;4429643;32;34555;-85
2023/02/28 00:11:23;;;;;;;0.20;0.20;;;;;;;4.49;46.41;100999.97;4392175;32;33449;-85
2023/02/28 00:13:50;;;;;;;2.83;1.20;;;;;;;4.75;45.51;101001.75;4415758;32;33400;-85
2023/02/28 00:16:20;;;;;;;0.82;0.82;;;;;;;4.57;46.09;101010.47;4383075;32;31971;-85
2023/02/28 00:18:48;;;;;;;1.65;0.65;;;;;;;4.60;46.11;101003.50;4390654;32;32830;-84
2023/02/28 00:21:17;;;;;;;0.30;0.30;;;;;;;4.52;45.79;101005.22;4401473;32;34675;-85
2023/02/28 00:23:45;;;;;;;0.00;0.00;;;;;;;4.61;45.67;101004.34;4386385;32;33289;-85
2023/02/28 00:26:14;;;;;;;0.37;0.37;;;;;;;4.42;46.56;101013.06;4417758;32;33388;-85
2023/02/28 00:28:42;;;;;;;0.10;0.10;;;;;;;4.32;46.56;101018.28;4408559;32;33530;-86
2023/02/28 00:31:10;;;;;;;0.15;0.15;;;;;;;4.35;46.08;101017.41;4395636;32;32842;-86
2023/02/28 00:33:37;;;;;;;0.32;0.32;;;;;;;4.44;46.32;101021.78;4418203;32;32972;-85
2023/02/28 00:36:07;;;;;;;0.00;0.00;;;;;;;4.51;46.08;101020.91;4420846;32;31557;-85
2023/02/28 00:38:37;;;;;;;0.60;0.60;;;;;;;4.54;46.17;101028.75;4432729;32;33696;-85
2023/02/28 00:41:04;;;;;;;0.43;0.43;;;;;;;4.55;45.49;101025.25;4397053;32;33517;-85
2023/02/28 00:43:34;;;;;;;0.37;0.37;;;;;;;4.72;44.77;101022.66;4409858;32;34066;-85
2023/02/28 00:46:02;;;;;;;0.43;0.43;;;;;;;4.62;44.86;101021.78;4406282;32;32585;-86
2023/02/28 00:48:30;;;;;;;0.22;0.22;;;;;;;4.53;45.57;101033.13;4391843;32;32972;-86
2023/02/28 00:50:58;;;;;;;0.03;0.03;;;;;;;4.65;45.39;101024.38;4392370;32;33216;-85
2023/02/28 00:53:26;;;;;;;0.00;0.00;;;;;;;4.63;44.92;101026.16;4370151;32;33334;-85
2023/02/28 00:55:53;;;;;;;2.33;2.12;;;;;;;4.90;43.82;101027.03;4399200;32;32394;-85
2023/02/28 00:58:21;;;;;;;2.35;1.00;;;;;;;5.05;43.40;101027.00;4404524;32;34199;-85
2023/02/28 01:00:49;;;;;;;0.45;0.45;;;;;;;5.04;43.71;101026.13;4432167;32;33952;-85
2023/02/28 01:03:17;;;;;;;2.55;2.17;;;;;;;4.75;44.58;101027.91;4429863;32;34499;-85
2023/02/28 01:05:46;;;;;;;1.25;1.15;;;;;;;4.52;46.50;101035.75;4411854;32;33701;-85
2023/02/28 01:08:14;;;;;;;0.32;0.32;;;;;;;4.59;47.12;101032.25;4398381;32;33909;-86
2023/02/28 01:10:42;;;;;;;2.00;1.55;;;;;;;4.68;47.07;101027.00;4393133;32;33907;-85
2023/02/28 01:13:11;;;;;;;2.22;1.98;;;;;;;4.70;46.67;101025.28;4364405;32;33606;-85
2023/02/28 01:15:42;;;;;;;0.57;0.45;;;;;;;4.75;46.37;101020.94;4398370;32;32833;-85
2023/02/28 01:18:10;;;;;;;;;;;;;;;4.81;46.26;101026.16;4372759;32;32986;-85
2023/02/28 01:20:38;;;;;;;0.20;0.20;;;;;;;4.83;46.79;101028.75;4393337;32;32482;-85
2023/02/28 01:23:06;;;;;;;10.98;1.70;;;;;;;4.84;46.93;101026.16;4400132;32;33424;-85
2023/02/28 01:25:35;;;;;;;0.62;0.62;;;;;;;4.88;46.87;101027.88;4382702;32;32801;-85
2023/02/28 01:28:05;;;;;;;1.00;1.00;;;;;;;4.73;46.53;101025.28;4407962;32;32611;-85
2023/02/28 01:30:35;;;;;;;0.75;0.75;;;;;;;4.81;46.67;101028.75;4399103;32;34379;-85
2023/02/28 01:33:03;;;;;;;1.17;1.12;;;;;;;4.77;46.76;101029.63;4407544;32;32450;-85
2023/02/28 01:35:34;;;;;;;0.90;0.85;;;;;;;4.82;46.53;101027.00;4396423;32;33150;-85
2023/02/28 01:38:02;;;;;;;1.17;1.08;;;;;;;4.78;46.73;101023.53;4396371;32;32866;-85
2023/02/28 01:40:47;;;;;;;0.30;0.30;;;;;;;4.76;46.88;101022.66;4418630;32;34689;-85
2023/02/28 01:43:25;;;;;;;0.35;0.35;;;;;;;4.74;46.74;101020.91;4393838;32;33031;-85
2023/02/28 01:45:56;;;;;;;0.75;0.75;;;;;;;4.92;46.15;101020.03;4414746;32;34137;-86
2023/02/28 01:48:31;;;;;;;0.20;0.20;;;;;;;4.91;46.03;101020.91;4398083;32;33927;-85
2023/02/28 01:51:05;;;;;;;0.52;0.52;;;;;;;4.88;46.11;101014.78;4402673;32;33831;-85
2023/02/28 01:53:36;;;;;;;0.68;0.68;;;;;;;4.84;46.84;101018.31;4386561;32;34493;-85
2023/02/28 01:56:06;;;;;;;0.30;0.30;;;;;;;4.96;46.83;101011.31;4389123;32;33416;-86
2023/02/28 01:58:34;;;;;;;0.80;0.52;;;;;;;4.84;47.20;101020.94;4398976;32;34571;-85
2023/02/28 02:01:02;;;;;;;0.37;0.37;;;;;;;4.90;46.92;101011.31;4406908;32;32932;-85
2023/02/28 02:03:31;;;;;;;1.58;1.50;;;;;;;4.87;46.92;101018.28;4383318;32;32985;-85
2023/02/28 02:05:58;;;;;;;0.98;0.95;;;;;;;4.86;46.67;101018.28;4363336;32;33139;-85
2023/02/28 02:08:28;;;;;;;1.10;1.02;;;;;;;4.99;46.36;101014.78;4366760;32;34642;-85
2023/02/28 02:10:58;;;;;;;0.10;0.10;;;;;;;4.98;46.23;101010.41;4373742;32;34966;-85
2023/02/28 02:14:00;;;;;;;0.37;0.37;;;;;;;5.05;45.84;101012.16;4408348;32;34446;-85
2023/02/28 02:16:36;;;;;;;;;;;;;;;5.03;45.83;101002.56;4394736;32;34132;-85
2023/02/28 02:19:14;;;;;;;1.02;0.85;;;;;;;5.18;45.12;101006.91;4392993;32;34144;-84
2023/02/28 02:22:02;;;;;;;0.00;0.00;;;;;;;4.97;45.27;101013.03;4395254;32;34445;-84
2023/02/28 02:24:49;;;;;;;0.30;0.30;;;;;;;5.06;45.25;101013.03;4345575;32;34042;-84
2023/02/28 02:27:18;;;;;;;0.95;0.73;;;;;;;5.06;44.96;101021.75;4329706;32;32273;-84
2023/02/28 02:30:22;;;;;;;1.75;1.65;;;;;;;5.19;44.82;101014.75;4344613;32;34121;-85
2023/02/28 02:33:28;;;;;;;0.88;0.80;;;;;;;5.35;44.77;101026.06;4312192;32;33634;-84
2023/02/28 02:36:27;;;;;;;0.52;0.52;;;;;;;5.03;45.97;101011.31;4323901;32;32108;-85
2023/02/28 02:38:55;;;;;;;0.90;0.90;;;;;;;4.97;46.83;101018.28;4293721;33;32638;-84
2023/02/28 02:41:37;;;;;;;0.75;0.75;;;;;;;5.01;46.75;101017.41;4345027;32;34274;-84
2023/02/28 02:44:14;;;;;;;0.22;0.22;;;;;;;4.96;46.96;101008.69;4312136;33;33897;-84
2023/02/28 02:46:47;;;;;;;0.00;0.00;;;;;;;4.90;46.23;101011.31;4352551;32;32658;-84
2023/02/28 02:49:20;;;;;;;2.60;1.02;;;;;;;5.12;44.67;101013.00;4359644;32;32324;-84
2023/02/28 02:51:48;;;;;;;0.65;0.65;;;;;;;5.30;42.16;101009.47;4382230;32;33193;-84
2023/02/28 02:54:31;;;;;;;0.68;0.68;;;;;;;4.96;41.67;101011.31;4368808;32;34025;-84
2023/02/28 02:57:11;;;;;;;0.00;0.00;;;;;;;5.14;41.35;101013.91;4360164;32;34963;-84
2023/02/28 02:59:42;;;;;;;3.00;1.40;;;;;;;5.05;41.13;101016.53;4309176;33;32849;-85
2023/02/28 03:02:12;;;;;;;0.68;0.68;;;;;;;5.19;40.93;101014.75;4366124;32;34240;-85
2023/02/28 03:04:43;;;;;;;0.17;0.17;;;;;;;4.73;40.98;101017.41;4319149;32;33234;-84
2023/02/28 03:07:13;;;;;;;0.45;0.45;;;;;;;4.76;41.42;101022.66;4396161;32;34075;-84
2023/02/28 03:09:41;;;;;;;0.10;0.10;;;;;;;5.10;40.35;101020.88;4387950;32;32366;-84
2023/02/28 03:12:12;;;;;;;0.00;0.00;;;;;;;4.75;40.79;101022.69;4418419;32;34716;-85
2023/02/28 03:14:57;;;;;;;0.20;0.20;;;;;;;4.81;41.02;101023.53;4386908;32;33885;-85
2023/02/28 03:18:03;;;;;;;0.88;0.88;;;;;;;5.12;40.06;101029.59;4367714;32;32632;-84
2023/02/28 03:20:34;;;;;;;1.10;1.00;;;;;;;4.49;41.37;101035.72;4380290;32;32856;-84
2023/02/28 03:23:10;;;;;;;0.20;0.20;;;;;;;4.53;40.95;101027.03;4388696;32;33816;-84
2023/02/28 03:25:43;;;;;;;2.42;1.42;;;;;;;4.75;40.19;101028.78;4386261;32;35771;-84
2023/02/28 03:28:32;;;;;;;0.00;0.00;;;;;;;4.71;40.36;101027.03;4417671;32;33866;-84
2023/02/28 03:31:09;;;;;;;0.43;0.28;;;;;;;4.51;40.41;101026.13;4388677;32;33194;-84
2023/02/28 03:34:04;;;;;;;0.00;0.00;;;;;;;4.53;41.17;101030.50;4378297;32;33620;-84
2023/02/28 03:36:45;;;;;;;2.80;0.75;;;;;;;4.59;40.74;101027.00;4358326;32;33452;-84
2023/02/28 03:39:23;;;;;;;0.00;0.00;;;;;;;4.82;39.99;101030.50;4386905;32;32918;-84
2023/02/28 03:42:22;;;;;;;3.03;1.10;;;;;;;4.46;40.92;101027.88;4368192;32;33179;-84
2023/02/28 03:44:57;;;;;;;0.00;0.00;;;;;;;4.65;40.68;101020.91;4365085;32;32614;-84
2023/02/28 03:47:39;;;;;;;0.00;0.00;;;;;;;4.66;40.92;101025.28;4396847;32;33303;-84
2023/02/28 03:50:07;;;;;;;0.30;0.30;;;;;;;4.58;41.02;101033.13;4316452;32;34133;-84
2023/02/28 03:52:38;;;;;;;0.30;0.30;;;;;;;4.87;40.04;101028.75;4356799;32;34601;-84
2023/02/28 03:55:09;;;;;;;3.72;0.43;;;;;;;4.51;40.62;101027.03;4370516;32;32993;-85
2023/02/28 03:57:43;;;;;;;0.00;0.00;;;;;;;4.60;40.99;101031.38;4409819;32;34371;-86
2023/02/28 04:00:28;;;;;;;0.10;0.10;;;;;;;4.34;40.98;101026.13;4413354;32;33980;-87
2023/02/28 04:02:56;;;;;;;0.00;0.00;;;;;;;4.28;41.25;101027.00;4341621;32;33136;-86
2023/02/28 04:05:23;;;;;;;0.20;0.20;;;;;;;4.40;40.68;101020.03;4347486;32;32883;-86
2023/02/28 04:07:51;;;;;;;0.05;0.05;;;;;;;4.16;41.36;101031.31;4383477;32;34677;-86
2023/02/28 04:10:19;;;;;;;0.00;0.00;;;;;;;3.99;41.76;101024.31;4407010;32;33049;-84
2023/02/28 04:12:47;;;;;;;0.00;0.00;;;;;;;4.22;41.33;101023.47;4421794;32;34268;-83
2023/02/28 04:15:14;;;;;;;0.17;0.17;;;;;;;3.86;41.88;101022.53;4414520;32;34638;-84
2023/02/28 04:17:42;;;;;;;0.88;0.88;;;;;;;4.22;41.30;101020.88;4420310;32;32943;-84
2023/02/28 04:20:11;;;;;;;0.03;0.03;;;;;;;4.21;41.49;101020.00;4383120;32;33985;-84
2023/02/28 04:22:38;;;;;;;0.00;0.00;;;;;;;4.41;40.98;101022.63;4387685;32;32087;-85
2023/02/28 04:25:07;;;;;;;0.32;0.15;;;;;;;4.37;41.43;101021.78;4406475;32;34366;-85
2023/02/28 04:27:34;;;;;;;3.75;1.55;;;;;;;4.30;41.29;101017.41;4408690;32;33422;-84
2023/02/28 04:30:02;;;;;;;0.45;0.45;;;;;;;4.35;40.83;101018.28;4422727;32;33407;-83
2023/02/28 04:32:30;;;;;;;1.98;0.90;;;;;;;4.33;41.81;101025.25;4372352;32;32475;-83
2023/02/28 04:34:57;;;;;;;0.37;0.37;;;;;;;4.49;41.38;101017.41;4417579;32;33164;-83
2023/02/28 04:37:28;;;;;;;0.57;0.57;;;;;;;4.53;41.42;101020.03;4343181;32;33070;-84
2023/02/28 04:39:56;;;;;;;0.00;0.00;;;;;;;4.46;41.91;101017.41;4357851;32;34120;-84
2023/02/28 04:42:23;;;;;;;2.40;0.70;;;;;;;4.56;41.72;101006.09;4376968;32;33184;-83
2023/02/28 04:44:51;;;;;;;1.62;1.55;;;;;;;4.64;41.27;101009.56;4389382;32;32921;-85
2023/02/28 04:47:18;;;;;;;1.27;0.88;;;;;;;4.54;41.63;101018.28;4349733;32;33730;-84
2023/02/28 04:49:46;;;;;;;2.30;1.37;;;;;;;4.70;41.07;101017.44;4360862;32;33094;-84
2023/02/28 04:52:14;;;;;;;0.50;0.50;;;;;;;4.55;41.06;101015.66;4361660;32;33208;-84
2023/02/28 04:54:41;;;;;;;0.62;0.62;;;;;;;4.52;41.64;101025.28;4402651;32;34662;-84
2023/02/28 04:57:10;;;;;;;0.22;0.22;;;;;;;4.63;41.52;101021.78;4382259;32;33875;-84
2023/02/28 04:59:37;;;;;;;0.50;0.50;;;;;;;4.78;41.12;101018.28;4390846;32;34326;-84
2023/02/28 05:02:06;;;;;;;1.33;0.68;;;;;;;4.84;40.38;101009.56;4430008;32;33811;-84
2023/02/28 05:04:34;;;;;;;0.10;0.10;;;;;;;4.83;40.83;101013.91;4429390;32;32823;-84
2023/02/28 05:07:02;;;;;;;1.48;1.25;;;;;;;4.87;40.65;101013.03;4425509;32;32770;-84
2023/02/28 05:09:32;;;;;;;0.90;0.90;;;;;;;4.78;40.68;101013.06;4419893;32;33093;-84
2023/02/28 05:12:00;;;;;;;0.20;0.20;;;;;;;4.74;41.10;101013.06;4395137;32;32337;-84
2023/02/28 05:14:27;;;;;;;1.37;1.27;;;;;;;4.85;40.93;101014.81;4413754;32;34530;-86
2023/02/28 05:16:55;;;;;;;5.75;3.03;;;;;;;4.85;41.05;101020.03;4426320;32;33954;-84
2023/02/28 05:19:22;;;;;;;1.52;1.42;;;;;;;4.95;41.04;101014.81;4402297;32;32815;-85
2023/02/28 05:21:52;;;;;;;0.00;0.00;;;;;;;5.22;40.60;101011.25;4403964;32;33540;-84
2023/02/28 05:24:22;;;;;;;0.32;0.32;;;;;;;5.27;39.81;101013.00;4423988;32;34501;-85
2023/02/28 05:26:52;;;;;;;0.00;0.00;;;;;;;4.86;40.51;101019.16;4399768;32;33573;-85
2023/02/28 05:29:25;;;;;;;2.00;1.40;;;;;;;4.65;41.49;101027.00;4338963;32;34332;-84
2023/02/28 05:31:52;;;;;;;1.05;0.98;;;;;;;4.64;41.26;101025.28;4320868;32;33838;-85
2023/02/28 05:34:20;;;;;;;0.00;0.00;;;;;;;4.74;41.38;101027.00;4354374;32;33178;-84
2023/02/28 05:36:48;;;;;;;0.57;0.57;;;;;;;4.53;41.35;101040.09;4379528;32;33373;-85
2023/02/28 05:39:15;;;;;;;0.68;0.68;;;;;;;4.87;40.68;101031.38;4353606;32;32741;-84
2023/02/28 05:41:43;;;;;;;0.00;0.00;;;;;;;5.01;40.63;101033.09;4385549;32;34076;-86
2023/02/28 05:44:12;;;;;;;0.15;0.15;;;;;;;4.89;40.84;101036.63;4363979;32;32848;-85
2023/02/28 05:46:40;;;;;;;0.62;0.62;;;;;;;4.78;41.14;101039.22;4397419;32;34113;-85
2023/02/28 05:49:07;;;;;;;0.00;0.00;;;;;;;4.82;42.20;101040.97;4409148;32;34613;-85
2023/02/28 05:51:36;;;;;;;0.20;0.20;;;;;;;5.00;42.02;101039.22;4367522;32;31864;-84
2023/02/28 05:54:03;;;;;;;0.10;0.10;;;;;;;4.94;42.13;101049.69;4363133;32;33863;-85
2023/02/28 05:56:31;;;;;;;1.02;0.47;;;;;;;5.03;42.04;101049.66;4352762;32;34503;-84
2023/02/28 05:58:59;;;;;;;0.20;0.20;;;;;;;5.04;41.65;101052.31;4352565;32;32811;-85
2023/02/28 06:01:39;;;;;;;0.85;0.85;;;;;;;5.02;41.48;101053.16;4353545;32;32973;-84
2023/02/28 06:04:09;;;;;;;0.10;0.10;;;;;;;5.23;41.32;101047.91;4350877;32;33814;-85
2023/02/28 06:06:49;;;;;;;0.10;0.10;;;;;;;5.13;41.59;101056.66;4336414;32;35235;-84
2023/02/28 06:09:20;;;;;;;0.13;0.13;;;;;;;5.38;41.14;101042.62;4341155;32;33194;-85
2023/02/28 06:11:48;;;;;;;0.62;0.62;;;;;;;5.65;39.14;101043.44;4352130;32;31752;-85
2023/02/28 06:14:17;;;;;;;0.40;0.40;;;;;;;5.63;39.22;101047.78;4399088;32;33184;-85
2023/02/28 06:16:45;;;;;;;0.10;0.10;;;;;;;5.68;39.00;101051.25;4312341;33;33980;-85
2023/02/28 06:19:13;;;;;;;0.77;0.77;;;;;;;5.76;38.74;101052.12;4360955;32;34440;-85
2023/02/28 06:21:41;;;;;;;0.80;0.80;;;;;;;5.64;38.83;101049.53;4353882;32;32982;-85
2023/02/28 06:24:09;;;;;;;1.00;1.00;;;;;;;5.72;38.66;101053.00;4377266;32;34121;-85
2023/02/28 06:26:36;;;;;;;12.25;0.55;;;;;;;5.65;38.64;101051.31;4365219;32;33518;-85
2023/02/28 06:29:04;;;;;;;1.87;0.93;;;;;;;5.49;39.25;101060.94;4366512;32;34712;-85
2023/02/28 06:31:31;;;;;;;0.00;0.00;;;;;;;5.39;40.08;101054.84;4381796;32;33516;-85
2023/02/28 06:33:59;;;;;;;0.10;0.10;;;;;;;5.46;40.80;101063.59;4386690;32;33583;-86
2023/02/28 06:36:27;;;;;;;0.95;0.95;;;;;;;5.60;40.54;101063.50;4396920;32;33842;-86
2023/02/28 06:38:55;;;;;;;5.22;1.33;;;;;;;5.62;39.78;101064.41;4406890;32;34443;-85
2023/02/28 06:41:25;;;;;;;0.43;0.43;;;;;;;5.84;38.49;101065.16;4417949;32;33093;-85
2023/02/28 06:43:53;;;;;;;0.40;0.37;;;;;;;5.72;39.81;101079.22;4389027;32;33263;-86
2023/02/28 06:46:21;;;;;;;0.10;0.10;;;;;;;5.95;38.06;101073.03;4337017;32;33841;-86
2023/02/28 06:48:49;;;;;;;1.27;0.98;;;;;;;5.93;37.68;101073.03;4349743;32;33700;-86
2023/02/28 06:51:20;;;;;;;0.00;0.00;;;;;;;5.83;38.24;101072.16;4340336;32;34059;-86
2023/02/28 06:53:48;;;;;;;0.33;0.33;;;;;;;5.68;38.62;101071.37;4348992;32;33478;-86
2023/02/28 06:56:16;;;;;;;0.00;0.00;;;;;;;5.48;41.87;101074.03;4371930;32;33386;-86
2023/02/28 06:58:49;;;;;;;0.10;0.10;;;;;;;5.69;38.72;101076.59;4346632;32;33880;-86
2023/02/28 07:01:18;;;;;;;0.10;0.10;;;;;;;5.82;37.75;101075.66;4348935;32;34485;-86
2023/02/28 07:03:46;;;;;;;0.25;0.25;;;;;;;5.74;38.17;101069.56;4381667;32;33517;-86
2023/02/28 07:06:14;;;;;;;0.22;0.22;;;;;;;5.31;41.42;101071.44;4349341;32;33067;-86
2023/02/28 07:08:42;;;;;;;0.00;0.00;;;;;;;5.27;41.32;101081.09;4359521;32;33491;-87
2023/02/28 07:11:09;;;;;;;0.25;0.25;;;;;;;5.38;41.32;101084.53;4374900;32;34388;-86
2023/02/28 07:13:37;;;;;;;3.00;1.77;;;;;;;5.54;40.45;101084.50;4407338;32;33875;-84
2023/02/28 07:16:07;;;;;;;0.10;0.10;;;;;;;5.87;38.79;101083.53;4430345;32;33825;-86
2023/02/28 07:18:35;;;;;;;0.20;0.20;;;;;;;6.08;38.13;101087.84;4390690;32;33309;-86
2023/02/28 07:21:04;;;;;;;0.20;0.20;;;;;;;6.10;39.05;101084.31;4355695;32;33959;-86
2023/02/28 07:23:32;;;;;;;5.22;1.10;;;;;;;5.88;39.61;101085.25;4366336;32;34002;-86
2023/02/28 07:26:00;;;;;;;0.10;0.10;;;;;;;5.90;41.45;101089.62;4363142;32;34607;-86
2023/02/28 07:28:27;;;;;;;0.80;0.40;;;;;;;6.13;40.07;101096.56;4396899;32;33845;-87
2023/02/28 07:30:55;;;;;;;0.17;0.17;;;;;;;6.72;36.38;101092.69;4404335;32;33408;-87
2023/02/28 07:33:23;;;;;;;2.08;1.35;;;;;;;6.06;38.70;101092.22;4386285;32;34189;-86
2023/02/28 07:35:51;;;;;;;0.08;0.08;;;;;;;6.32;37.17;101099.97;4335864;32;32487;-86
2023/02/28 07:38:19;;;;;;;0.20;0.20;;;;;;;6.06;36.77;101102.69;4341204;32;33675;-86
2023/02/28 07:40:47;;;;;;;0.03;0.03;;;;;;;5.76;38.70;101101.91;4391858;32;33080;-86
2023/02/28 07:43:14;;;;;;;0.82;0.80;;;;;;;6.04;38.08;101107.97;4409104;32;32984;-86
2023/02/28 07:45:42;;;;;;;0.90;0.90;;;;;;;6.19;39.11;101103.53;4407777;32;33482;-85
2023/02/28 07:48:09;;;;;;;0.45;0.45;;;;;;;6.51;36.18;101100.72;4385178;32;32825;-86
2023/02/28 07:50:37;;;;;;;0.35;0.35;;;;;;;6.29;38.32;101103.47;4357697;32;33700;-84
2023/02/28 07:53:05;;;;;;;0.00;0.00;;;;;;;5.90;37.04;101101.87;4336287;32;32513;-84
2023/02/28 07:55:33;;;;;;;0.37;0.37;;;;;;;5.95;36.75;101108.00;4359557;32;33091;-83
2023/02/28 07:58:12;;;;;;;0.00;0.00;;;;;;;6.52;36.32;101105.09;4512079;31;161807;-83
2023/02/28 08:00:40;;;;;;;0.37;0.37;;;;;;;6.52;36.32;101105.09;4487556;31;33024;-83
2023/02/28 08:03:12;;;;;;;1.45;0.80;;;;;;;6.03;36.53;101100.97;4479802;31;33036;-86
2023/02/28 08:05:40;;;;;;;1.35;0.47;;;;;;;6.44;35.40;101101.63;4477908;31;34115;-84
2023/02/28 08:08:08;;;;;;;0.00;0.00;;;;;;;6.26;35.05;101103.47;4489901;31;31984;-82
2023/02/28 08:10:36;;;;;;;1.60;1.35;;;;;;;5.23;37.87;101102.91;4487296;31;33308;-82
2023/02/28 08:13:04;;;;;;;0.00;0.00;;;;;;;5.31;37.83;101106.38;4486037;31;32774;-82
2023/02/28 08:15:31;;;;;;;0.30;0.30;;;;;;;5.63;37.43;101100.19;4491220;31;33012;-82
2023/02/28 08:17:59;;;;;;;0.25;0.25;;;;;;;5.53;37.38;101106.34;4475745;31;33201;-82
2023/02/28 08:20:27;;;;;;;0.00;0.00;;;;;;;5.47;37.63;101104.63;4491189;31;33332;-82
2023/02/28 08:22:54;;;;;;;0.20;0.20;;;;;;;5.40;38.51;101103.72;4490365;31;33042;-82
2023/02/28 08:25:22;;;;;;;0.00;0.00;;;;;;;5.98;37.23;101102.75;4499576;31;33612;-82
2023/02/28 08:27:51;;;;;;;0.00;0.00;;;;;;;5.48;37.93;101103.72;4486775;31;33102;-81
2023/02/28 08:30:19;;;;;;;13.25;1.08;;;;;;;5.71;37.70;101097.56;4493594;31;33198;-82
2023/02/28 08:32:46;;;;;;;0.10;0.10;;;;;;;5.76;37.95;101106.28;4492079;31;32839;-82
2023/02/28 08:35:14;;;;;;;0.00;0.00;;;;;;;5.87;38.00;101109.72;4488608;31;33973;-83
2023/02/28 08:37:42;;;;;;;0.22;0.22;;;;;;;6.03;38.64;101105.31;4501044;31;33706;-82
2023/02/28 08:40:10;;;;;;;0.10;0.10;;;;;;;6.25;37.00;101099.09;4491953;31;32011;-82
2023/02/28 08:42:38;;;;;;;1.20;1.17;;;;;;;6.26;37.17;101094.72;4473158;31;32722;-82
2023/02/28 08:45:06;;;;;;;0.10;0.10;;;;;;;6.15;39.76;101107.91;4476433;31;32923;-82
2023/02/28 08:47:34;;;;;;;0.00;0.00;;;;;;;6.31;37.84;101093.81;4487058;31;34252;-83
2023/02/28 08:50:01;;;;;;;0.10;0.10;;;;;;;6.32;37.93;101099.97;4497046;31;33785;-83
2023/02/28 08:52:29;;;;;;;1.40;1.02;;;;;;;6.03;38.00;101106.22;4470856;31;32105;-82
2023/02/28 08:54:56;;;;;;;0.35;0.35;;;;;;;6.17;39.91;101098.25;4474222;31;33789;-83
2023/02/28 08:57:26;;;;;;;0.43;0.43;;;;;;;6.96;37.30;101082.88;4495622;31;34142;-82
2023/02/28 08:59:53;;;;;;;0.13;0.13;;;;;;;6.03;38.55;101100.97;4486264;31;33540;-82
2023/02/28 09:02:21;;;;;;;0.00;0.00;;;;;;;6.11;38.95;101098.31;4484886;31;33987;-82
2023/02/28 09:04:48;;;;;;;0.30;0.30;;;;;;;6.21;39.05;101100.00;4475059;31;31992;-84
2023/02/28 09:07:16;;;;;;;0.10;0.10;;;;;;;6.14;38.77;101104.41;4490616;31;34458;-82
2023/02/28 09:09:53;;;;;;;0.30;0.30;;;;;;;6.40;38.37;101096.38;4463283;31;32367;-82
2023/02/28 09:12:23;;;;;;;0.00;0.00;;;;;;;6.65;38.06;101098.88;4464239;31;35166;-83
2023/02/28 09:14:51;;;;;;;0.00;0.00;;;;;;;6.66;39.59;101098.00;4475908;31;34518;-83
2023/02/28 09:17:19;;;;;;;1.67;0.77;;;;;;;6.27;40.68;101094.75;4474477;31;33435;-82
2023/02/28 09:19:50;;;;;;;0.77;0.77;;;;;;;7.11;39.28;101086.25;4475626;31;35211;-82
2023/02/28 09:22:17;;;;;;;25.85;0.70;;;;;;;7.20;37.67;101085.28;4477459;31;32489;-82
2023/02/28 09:24:45;;;;;;;0.22;0.13;;;;;;;7.29;38.86;101079.94;4489285;31;33938;-82
2023/02/28 09:27:13;;;;;;;0.13;0.13;;;;;;;7.84;36.41;101082.00;4487799;31;34261;-82
2023/02/28 09:29:40;;;;;;;0.03;0.03;;;;;;;7.84;35.62;101083.75;4473216;31;32592;-82
2023/02/28 09:32:08;;;;;;;0.17;0.08;;;;;;;6.81;37.75;101086.50;4476367;31;34357;-83
2023/02/28 09:34:37;;;;;;;0.00;0.00;;;;;;;7.06;38.79;101093.28;4484561;31;36715;-82
2023/02/28 09:37:04;;;;;;;0.20;0.20;;;;;;;7.84;37.15;101091.63;4472746;31;33710;-82
2023/02/28 09:39:32;;;;;;;0.00;0.00;;;;;;;7.83;35.80;101093.41;4490376;31;32940;-83
2023/02/28 09:42:01;;;;;;;0.80;0.65;;;;;;;7.33;36.98;101096.56;4474598;31;32619;-83
2023/02/28 09:44:35;;;;;;;1.67;0.73;;;;;;;7.64;37.36;101089.22;4488386;31;33539;-81
2023/02/28 09:47:18;;;;;;;0.13;0.13;;;;;;;7.54;38.45;101095.47;4487666;31;33773;-84
2023/02/28 09:49:48;;;;;;;0.98;0.57;;;;;;;7.49;39.08;101092.88;4480160;31;33635;-83
2023/02/28 09:52:19;;;;;;;3.83;0.75;;;;;;;7.56;36.57;101088.44;4486349;31;33890;-83
2023/02/28 09:54:47;;;;;;;2.37;0.85;;;;;;;7.27;38.14;101088.75;4485069;31;35309;-82
2023/02/28 09:57:21;;;;;;;0.00;0.00;;;;;;;7.43;36.97;101087.69;4486496;31;33124;-83
2023/02/28 10:00:01;;;;;;;0.10;0.10;;;;;;;8.06;35.60;101086.97;4488391;31;32240;-82
2023/02/28 10:03:01;;;;;;;0.55;0.55;;;;;;;8.31;34.86;101083.12;4480725;31;33482;-83
2023/02/28 10:05:34;;;;;;;0.77;0.77;;;;;;;7.89;36.58;101077.53;4487835;31;34247;-83
2023/02/28 10:08:15;;;;;;;0.55;0.55;;;;;;;7.72;37.03;101081.25;4477085;31;32949;-82
2023/02/28 10:10:49;;;;;;;0.00;0.00;;;;;;;7.87;36.28;101067.91;4480734;31;32646;-83
2023/02/28 10:13:25;;;;;;;0.00;0.00;;;;;;;7.52;37.12;101069.22;4478308;31;33342;-83
2023/02/28 10:16:01;;;;;;;0.65;0.57;;;;;;;7.39;38.07;101071.09;4477824;31;32425;-83
2023/02/28 10:18:38;;;;;;;3.80;2.08;;;;;;;7.17;38.10;101067.81;4472899;31;33953;-83
2023/02/28 10:21:08;;;;;;;0.30;0.25;;;;;;;7.37;38.53;101072.88;4480174;31;32845;-83
2023/02/28 10:23:37;;;;;;;1.98;0.95;;;;;;;7.94;36.54;101062.56;4472482;31;33734;-83
2023/02/28 10:26:16;;;;;;;0.10;0.10;;;;;;;7.72;38.97;101061.09;4469296;31;32902;-83
2023/02/28 10:28:44;;;;;;;0.00;0.00;;;;;;;7.65;37.23;101062.06;4474019;31;33912;-83
2023/02/28 10:31:16;;;;;;;0.57;0.35;;;;;;;7.85;37.66;101067.94;4476179;31;32572;-83
2023/02/28 10:33:45;;;;;;;0.28;0.28;;;;;;;8.14;37.11;101061.44;4486958;31;33622;-83
2023/02/28 10:36:18;;;;;;;18.52;0.85;;;;;;;7.98;36.53;101067.81;4484778;31;33623;-83
2023/02/28 10:38:47;;;;;;;0.70;0.55;;;;;;;7.30;37.91;101059.78;4474059;31;34531;-83
2023/02/28 10:41:28;;;;;;;0.30;0.30;;;;;;;7.10;42.39;101062.62;4476610;31;32317;-83
2023/02/28 10:44:28;;;;;;;0.00;0.00;;;;;;;7.42;37.38;101049.19;4466343;31;33250;-84
2023/02/28 10:46:56;;;;;;;0.00;0.00;;;;;;;7.29;37.87;101053.69;4445800;31;33166;-83
2023/02/28 10:49:27;;;;;;;0.20;0.20;;;;;;;6.70;38.96;101060.34;4488820;31;34853;-83
2023/02/28 10:51:59;;;;;;;0.00;0.00;;;;;;;7.12;38.55;101053.84;4480583;31;33709;-83
2023/02/28 10:54:37;;;;;;;0.20;0.20;;;;;;;7.60;38.44;101048.09;4487073;31;32660;-83
2023/02/28 10:57:08;;;;;;;0.37;0.30;;;;;;;7.65;38.26;101041.91;4480148;31;33439;-83
2023/02/28 10:59:37;;;;;;;0.25;0.25;;;;;;;7.28;39.00;101057.19;4465765;31;32116;-83
2023/02/28 11:02:34;;;;;;;0.82;0.20;;;;;;;7.61;38.63;101044.59;4475481;31;32775;-83
2023/02/28 11:05:23;;;;;;;1.25;1.15;;;;;;;7.59;39.56;101046.34;4473370;31;34052;-82
2023/02/28 11:07:53;;;;;;;0.05;0.05;;;;;;;8.10;37.18;101039.56;4471816;31;33808;-83
2023/02/28 11:10:27;;;;;;;0.30;0.30;;;;;;;8.00;37.69;101037.94;4484972;31;32963;-81
2023/02/28 11:12:56;;;;;;;0.10;0.10;;;;;;;7.56;37.80;101036.75;4470095;31;33140;-81
2023/02/28 11:16:01;;;;;;;2.37;1.10;;;;;;;7.82;38.42;101039.03;4477999;31;32984;-81
2023/02/28 11:18:44;;;;;;;3.33;1.67;;;;;;;8.06;38.75;101039.63;4463937;31;33216;-81
2023/02/28 11:21:20;;;;;;;0.25;0.25;;;;;;;8.93;36.38;101033.94;4481784;31;33721;-81
2023/02/28 11:23:48;;;;;;;;;;;;;;;9.12;34.78;101025.69;4475520;31;31352;-81
2023/02/28 11:26:40;;;;;;;0.10;0.10;;;;;;;8.51;36.07;101034.63;4463352;31;33410;-81
2023/02/28 11:29:18;;;;;;;1.30;1.12;;;;;;;8.31;38.07;101032.25;4490554;31;34356;-81
2023/02/28 11:32:18;;;;;;;0.47;0.47;;;;;;;8.47;37.39;101031.16;4457099;31;33644;-81
2023/02/28 11:35:11;;;;;;;0.00;0.00;;;;;;;8.14;37.00;101032.50;4483415;31;31962;-81
2023/02/28 11:37:48;;;;;;;0.00;0.00;;;;;;;8.41;36.76;101029.50;4474214;31;33172;-82
2023/02/28 11:40:57;;;;;;;0.45;0.28;;;;;;;8.27;37.34;101022.69;4465712;31;35364;-82
2023/02/28 11:43:53;;;;;;;0.35;0.35;;;;;;;8.59;37.24;101030.09;4477313;31;33089;-81
2023/02/28 11:46:55;;;;;;;1.40;1.35;;;;;;;7.81;37.82;101032.06;4486006;31;33384;-84
2023/02/28 11:49:35;;;;;;;0.00;0.00;;;;;;;8.05;36.63;101030.00;4464219;31;33022;-81
2023/02/28 11:52:29;;;;;;;0.28;0.28;;;;;;;8.14;37.17;101024.59;4454343;31;33660;-81
2023/02/28 11:56:00;;;;;;;0.22;0.22;;;;;;;8.50;36.95;101007.44;4487297;31;32638;-82
2023/02/28 11:58:39;;;;;;;0.10;0.10;;;;;;;8.87;36.64;101009.44;4483819;31;32498;-81